createdAt,value
2023-02-22T00:00:43.400Z,958.80
2023-02-22T00:01:46.514Z,958.80
2023-02-22T00:02:43.462Z,958.80
2023-02-22T00:03:43.367Z,958.79
2023-02-22T00:04:43.392Z,958.81
2023-02-22T00:05:43.420Z,958.80
2023-02-22T00:06:43.699Z,958.86
2023-02-22T00:07:43.368Z,958.80
2023-02-22T00:08:43.361Z,958.77
2023-02-22T00:09:43.348Z,958.78
2023-02-22T00:10:43.320Z,958.75
2023-02-22T00:11:43.454Z,958.73
2023-02-22T00:12:43.353Z,958.73
2023-02-22T00:13:43.373Z,958.72
2023-02-22T00:14:43.350Z,958.71
2023-02-22T00:15:43.411Z,958.72
2023-02-22T00:16:46.314Z,958.67
2023-02-22T00:17:43.403Z,958.69
2023-02-22T00:18:43.371Z,958.73
2023-02-22T00:19:43.402Z,958.73
2023-02-22T00:20:43.397Z,958.75
2023-02-22T00:21:43.396Z,958.76
2023-02-22T00:22:43.229Z,958.75
2023-02-22T00:23:43.254Z,958.77
2023-02-22T00:24:43.226Z,958.77
2023-02-22T00:25:43.275Z,958.74
2023-02-22T00:26:43.205Z,958.79
2023-02-22T00:27:43.227Z,958.78
2023-02-22T00:28:43.163Z,958.78
2023-02-22T00:29:43.207Z,958.77
2023-02-22T00:30:43.211Z,958.76
2023-02-22T00:31:46.217Z,958.76
2023-02-22T00:32:43.202Z,958.74
2023-02-22T00:33:43.097Z,958.75
2023-02-22T00:34:43.122Z,958.79
2023-02-22T00:35:43.069Z,958.75
2023-02-22T00:36:43.038Z,958.72
2023-02-22T00:37:43.084Z,958.77
2023-02-22T00:38:43.063Z,958.73
2023-02-22T00:39:43.015Z,958.75
2023-02-22T00:40:43.014Z,958.72
2023-02-22T00:41:43.047Z,958.71
2023-02-22T00:42:43.045Z,958.71
2023-02-22T00:43:43.035Z,958.74
2023-02-22T00:44:42.967Z,958.73
2023-02-22T00:45:43.066Z,958.75
2023-02-22T00:46:45.972Z,958.74
2023-02-22T00:47:42.984Z,958.78
2023-02-22T00:48:43.033Z,958.73
2023-02-22T00:49:42.987Z,958.75
2023-02-22T00:50:42.943Z,958.74
2023-02-22T00:51:42.930Z,958.73
2023-02-22T00:52:42.921Z,958.74
2023-02-22T00:53:42.888Z,958.77
2023-02-22T00:54:42.857Z,958.77
2023-02-22T00:55:42.843Z,958.77
2023-02-22T00:56:42.839Z,958.68
2023-02-22T00:57:42.889Z,958.74
2023-02-22T00:58:42.849Z,958.71
2023-02-22T00:59:42.870Z,958.72
2023-02-22T01:00:42.830Z,958.68
2023-02-22T01:01:45.819Z,958.70
2023-02-22T01:02:42.800Z,958.68
2023-02-22T01:03:42.781Z,958.64
2023-02-22T01:04:42.762Z,958.71
2023-02-22T01:05:42.794Z,958.66
2023-02-22T01:06:42.733Z,958.63
2023-02-22T01:07:42.749Z,958.64
2023-02-22T01:08:42.787Z,958.61
2023-02-22T01:09:42.779Z,958.60
2023-02-22T01:10:42.722Z,958.59
2023-02-22T01:11:42.752Z,958.61
2023-02-22T01:12:42.715Z,958.62
2023-02-22T01:13:42.694Z,958.61
2023-02-22T01:14:42.708Z,958.57
2023-02-22T01:15:42.698Z,958.57
2023-02-22T01:16:45.684Z,958.53
2023-02-22T01:17:42.644Z,958.53
2023-02-22T01:18:42.630Z,958.55
2023-02-22T01:19:42.630Z,958.52
2023-02-22T01:20:43.469Z,958.56
2023-02-22T01:21:42.636Z,958.54
2023-02-22T01:22:42.633Z,958.51
2023-02-22T01:23:42.776Z,958.50
2023-02-22T01:24:42.594Z,958.59
2023-02-22T01:25:42.538Z,958.47
2023-02-22T01:26:42.586Z,958.57
2023-02-22T01:27:42.561Z,958.49
2023-02-22T01:28:42.552Z,958.52
2023-02-22T01:29:42.523Z,958.53
2023-02-22T01:30:42.655Z,958.49
2023-02-22T01:31:45.491Z,958.52
2023-02-22T01:32:42.513Z,958.48
2023-02-22T01:33:42.561Z,958.50
2023-02-22T01:34:42.439Z,958.44
2023-02-22T01:35:42.450Z,958.43
2023-02-22T01:36:42.457Z,958.43
2023-02-22T01:37:42.462Z,958.41
2023-02-22T01:38:42.432Z,958.45
2023-02-22T01:39:42.420Z,958.42
2023-02-22T01:40:42.406Z,958.39
2023-02-22T01:41:42.457Z,958.36
2023-02-22T01:42:42.357Z,958.42
2023-02-22T01:43:42.388Z,958.33
2023-02-22T01:44:42.341Z,958.42
2023-02-22T01:45:42.400Z,958.37
2023-02-22T01:46:45.335Z,958.39
2023-02-22T01:47:42.448Z,958.38
2023-02-22T01:48:42.334Z,958.38
2023-02-22T01:49:42.313Z,958.37
2023-02-22T01:50:42.355Z,958.37
2023-02-22T01:51:42.316Z,958.36
2023-02-22T01:52:42.251Z,958.34
2023-02-22T01:53:42.252Z,958.35
2023-02-22T01:54:42.237Z,958.34
2023-02-22T01:55:42.269Z,958.38
2023-02-22T01:56:42.225Z,958.38
2023-02-22T01:57:42.369Z,958.37
2023-02-22T01:58:42.224Z,958.33
2023-02-22T01:59:42.220Z,958.36
2023-02-22T02:00:42.199Z,958.33
2023-02-22T02:01:45.182Z,958.30
2023-02-22T02:02:42.269Z,958.35
2023-02-22T02:03:42.242Z,958.30
2023-02-22T02:04:42.241Z,958.31
2023-02-22T02:05:42.235Z,958.35
2023-02-22T02:06:42.221Z,958.32
2023-02-22T02:07:42.116Z,958.31
2023-02-22T02:08:42.222Z,958.34
2023-02-22T02:09:42.155Z,958.35
2023-02-22T02:10:42.233Z,958.35
2023-02-22T02:11:42.078Z,958.30
2023-02-22T02:12:42.141Z,958.32
2023-02-22T02:13:42.116Z,958.30
2023-02-22T02:14:42.321Z,958.32
2023-02-22T02:15:42.178Z,958.31
2023-02-22T02:16:45.028Z,958.30
2023-02-22T02:17:42.164Z,958.32
2023-02-22T02:18:42.001Z,958.28
2023-02-22T02:19:42.062Z,958.34
2023-02-22T02:20:41.995Z,958.30
2023-02-22T02:21:41.975Z,958.26
2023-02-22T02:22:42.109Z,958.25
2023-02-22T02:23:42.008Z,958.26
2023-02-22T02:24:41.952Z,958.25
2023-02-22T02:25:41.955Z,958.21
2023-02-22T02:26:41.957Z,958.23
2023-02-22T02:27:41.962Z,958.24
2023-02-22T02:28:41.975Z,958.19
2023-02-22T02:29:41.949Z,958.15
2023-02-22T02:30:42.065Z,958.15
2023-02-22T02:31:44.945Z,958.13
2023-02-22T02:32:41.939Z,958.12
2023-02-22T02:33:41.980Z,958.18
2023-02-22T02:34:41.846Z,958.15
2023-02-22T02:35:41.885Z,958.17
2023-02-22T02:36:41.876Z,958.16
2023-02-22T02:37:41.858Z,958.13
2023-02-22T02:38:41.787Z,958.14
2023-02-22T02:39:42.056Z,958.08
2023-02-22T02:40:41.814Z,958.08
2023-02-22T02:41:41.734Z,958.09
2023-02-22T02:42:41.742Z,958.06
2023-02-22T02:43:41.730Z,958.09
2023-02-22T02:44:41.786Z,958.08
2023-02-22T02:45:41.688Z,958.05
2023-02-22T02:46:44.704Z,958.08
2023-02-22T02:47:41.687Z,958.06
2023-02-22T02:48:41.685Z,958.07
2023-02-22T02:49:41.643Z,958.02
2023-02-22T02:50:41.679Z,958.05
2023-02-22T02:51:41.642Z,958.06
2023-02-22T02:52:41.616Z,958.04
2023-02-22T02:53:41.608Z,958.04
2023-02-22T02:54:41.625Z,957.98
2023-02-22T02:55:41.740Z,958.04
2023-02-22T02:56:41.606Z,957.97
2023-02-22T02:57:41.607Z,957.99
2023-02-22T02:58:41.585Z,957.98
2023-02-22T02:59:41.571Z,957.99
2023-02-22T03:00:41.557Z,957.93
2023-02-22T03:01:44.606Z,957.93
2023-02-22T03:02:41.619Z,957.95
2023-02-22T03:03:41.515Z,957.93
2023-02-22T03:04:41.530Z,957.94
2023-02-22T03:05:41.498Z,957.95
2023-02-22T03:06:41.505Z,957.93
2023-02-22T03:07:41.627Z,957.95
2023-02-22T03:08:41.460Z,957.92
2023-02-22T03:09:41.471Z,957.92
2023-02-22T03:10:41.481Z,957.96
2023-02-22T03:11:41.554Z,957.87
2023-02-22T03:12:41.416Z,957.88
2023-02-22T03:13:41.439Z,957.86
2023-02-22T03:14:41.427Z,957.86
2023-02-22T03:15:41.418Z,957.89
2023-02-22T03:16:44.451Z,957.86
2023-02-22T03:17:41.434Z,957.86
2023-02-22T03:18:41.356Z,957.85
2023-02-22T03:19:41.360Z,957.86
2023-02-22T03:20:41.370Z,957.83
2023-02-22T03:21:41.347Z,957.86
2023-02-22T03:22:41.326Z,957.88
2023-02-22T03:23:41.327Z,957.83
2023-02-22T03:24:41.322Z,957.88
2023-02-22T03:25:41.333Z,957.83
2023-02-22T03:26:41.303Z,957.85
2023-02-22T03:27:41.307Z,957.87
2023-02-22T03:28:41.288Z,957.87
2023-02-22T03:29:41.283Z,957.87
2023-02-22T03:30:41.421Z,957.87
2023-02-22T03:31:44.230Z,957.85
2023-02-22T03:32:41.266Z,957.83
2023-02-22T03:33:41.217Z,957.79
2023-02-22T03:34:41.235Z,957.82
2023-02-22T03:35:41.237Z,957.81
2023-02-22T03:36:41.214Z,957.83
2023-02-22T03:37:41.207Z,957.82
2023-02-22T03:38:41.176Z,957.89
2023-02-22T03:39:41.188Z,957.82
2023-02-22T03:40:41.165Z,957.82
2023-02-22T03:41:41.293Z,957.81
2023-02-22T03:42:41.128Z,957.81
2023-02-22T03:43:41.136Z,957.77
2023-02-22T03:44:41.137Z,957.75
2023-02-22T03:45:41.143Z,957.77
2023-02-22T03:46:44.154Z,957.76
2023-02-22T03:47:41.165Z,957.80
2023-02-22T03:48:41.078Z,957.81
2023-02-22T03:49:41.052Z,957.82
2023-02-22T03:50:41.102Z,957.81
2023-02-22T03:51:41.050Z,957.81
2023-02-22T03:52:41.068Z,957.79
2023-02-22T03:53:41.029Z,957.84
2023-02-22T03:54:41.017Z,957.82
2023-02-22T03:55:41.034Z,957.78
2023-02-22T03:56:40.997Z,957.81
2023-02-22T03:57:40.975Z,957.80
2023-02-22T03:58:40.968Z,957.78
2023-02-22T03:59:40.991Z,957.81
2023-02-22T04:00:40.958Z,957.83
2023-02-22T04:01:43.936Z,957.81
2023-02-22T04:02:41.005Z,957.83
2023-02-22T04:03:40.925Z,957.81
2023-02-22T04:04:40.940Z,957.83
2023-02-22T04:05:40.930Z,957.81
2023-02-22T04:06:40.969Z,957.84
2023-02-22T04:07:40.877Z,957.84
2023-02-22T04:08:40.911Z,957.83
2023-02-22T04:09:40.858Z,957.83
2023-02-22T04:10:40.861Z,957.77
2023-02-22T04:11:40.854Z,957.77
2023-02-22T04:12:40.861Z,957.80
2023-02-22T04:13:40.851Z,957.78
2023-02-22T04:14:40.848Z,957.81
2023-02-22T04:15:40.861Z,957.85
2023-02-22T04:16:43.799Z,957.82
2023-02-22T04:17:40.836Z,957.80
2023-02-22T04:18:40.831Z,957.78
2023-02-22T04:19:40.756Z,957.81
2023-02-22T04:20:41.752Z,957.76
2023-02-22T04:21:40.806Z,957.77
2023-02-22T04:22:40.747Z,957.76
2023-02-22T04:23:40.749Z,957.79
2023-02-22T04:24:40.722Z,957.79
2023-02-22T04:25:40.744Z,957.73
2023-02-22T04:26:40.747Z,957.75
2023-02-22T04:27:40.689Z,957.73
2023-02-22T04:28:40.836Z,957.76
2023-02-22T04:29:40.702Z,957.73
2023-02-22T04:30:40.769Z,957.78
2023-02-22T04:31:43.683Z,957.78
2023-02-22T04:32:40.679Z,957.75
2023-02-22T04:33:40.669Z,957.71
2023-02-22T04:34:40.650Z,957.70
2023-02-22T04:35:40.638Z,957.77
2023-02-22T04:36:40.605Z,957.70
2023-02-22T04:37:40.597Z,957.73
2023-02-22T04:38:40.581Z,957.72
2023-02-22T04:39:40.661Z,957.70
2023-02-22T04:40:40.586Z,957.74
2023-02-22T04:41:40.572Z,957.70
2023-02-22T04:42:40.551Z,957.75
2023-02-22T04:43:40.670Z,957.73
2023-02-22T04:44:40.556Z,957.76
2023-02-22T04:45:40.515Z,957.67
2023-02-22T04:46:43.568Z,957.73
2023-02-22T04:47:40.534Z,957.77
2023-02-22T04:48:40.504Z,957.76
2023-02-22T04:49:40.472Z,957.73
2023-02-22T04:50:40.517Z,957.73
2023-02-22T04:51:40.479Z,957.76
2023-02-22T04:52:40.475Z,957.76
2023-02-22T04:53:40.435Z,957.74
2023-02-22T04:54:40.416Z,957.73
2023-02-22T04:55:40.435Z,957.75
2023-02-22T04:56:40.430Z,957.77
2023-02-22T04:57:40.396Z,957.76
2023-02-22T04:58:40.441Z,957.78
2023-02-22T04:59:40.383Z,957.79
2023-02-22T05:00:40.393Z,957.74
2023-02-22T05:01:43.354Z,957.77
2023-02-22T05:02:40.450Z,957.74
2023-02-22T05:03:40.474Z,957.71
2023-02-22T05:04:40.361Z,957.69
2023-02-22T05:05:40.351Z,957.72
2023-02-22T05:06:40.300Z,957.72
2023-02-22T05:07:40.312Z,957.74
2023-02-22T05:08:40.283Z,957.78
2023-02-22T05:09:40.274Z,957.80
2023-02-22T05:10:40.299Z,957.75
2023-02-22T05:11:40.286Z,957.71
2023-02-22T05:12:40.275Z,957.75
2023-02-22T05:13:40.235Z,957.71
2023-02-22T05:14:40.251Z,957.74
2023-02-22T05:15:40.256Z,957.74
2023-02-22T05:16:43.202Z,957.75
2023-02-22T05:17:40.228Z,957.71
2023-02-22T05:18:40.179Z,957.69
2023-02-22T05:19:40.193Z,957.70
2023-02-22T05:20:40.203Z,957.64
2023-02-22T05:21:40.187Z,957.69
2023-02-22T05:22:40.178Z,957.69
2023-02-22T05:23:40.158Z,957.72
2023-02-22T05:24:40.123Z,957.66
2023-02-22T05:25:40.251Z,957.66
2023-02-22T05:26:40.136Z,957.65
2023-02-22T05:27:40.143Z,957.69
2023-02-22T05:28:40.110Z,957.61
2023-02-22T05:29:40.085Z,957.65
2023-02-22T05:30:40.120Z,957.69
2023-02-22T05:31:43.114Z,957.67
2023-02-22T05:32:40.068Z,957.67
2023-02-22T05:33:40.060Z,957.64
2023-02-22T05:34:40.063Z,957.67
2023-02-22T05:35:40.047Z,957.66
2023-02-22T05:36:40.056Z,957.64
2023-02-22T05:37:40.030Z,957.66
2023-02-22T05:38:40.005Z,957.63
2023-02-22T05:39:40.012Z,957.63
2023-02-22T05:40:40.138Z,957.61
2023-02-22T05:41:39.964Z,957.63
2023-02-22T05:42:39.979Z,957.63
2023-02-22T05:43:40.945Z,957.63
2023-02-22T05:44:40.959Z,957.62
2023-02-22T05:45:39.935Z,957.65
2023-02-22T05:46:42.929Z,957.62
2023-02-22T05:47:39.952Z,957.62
2023-02-22T05:48:39.886Z,957.62
2023-02-22T05:49:39.861Z,957.62
2023-02-22T05:50:39.868Z,957.61
2023-02-22T05:51:39.892Z,957.64
2023-02-22T05:52:39.812Z,957.62
2023-02-22T05:53:39.814Z,957.60
2023-02-22T05:54:39.834Z,957.59
2023-02-22T05:55:39.784Z,957.66
2023-02-22T05:56:39.779Z,957.64
2023-02-22T05:57:39.762Z,957.63
2023-02-22T05:58:39.763Z,957.70
2023-02-22T05:59:39.740Z,957.65
2023-02-22T06:00:40.034Z,957.60
2023-02-22T06:01:42.841Z,957.66
2023-02-22T06:02:39.738Z,957.66
2023-02-22T06:03:39.681Z,957.69
2023-02-22T06:04:39.681Z,957.66
2023-02-22T06:05:39.771Z,957.67
2023-02-22T06:06:39.670Z,957.62
2023-02-22T06:07:39.675Z,957.65
2023-02-22T06:08:39.627Z,957.66
2023-02-22T06:09:39.616Z,957.64
2023-02-22T06:10:39.734Z,957.66
2023-02-22T06:11:39.624Z,957.66
2023-02-22T06:12:39.621Z,957.64
2023-02-22T06:13:39.592Z,957.63
2023-02-22T06:14:39.570Z,957.63
2023-02-22T06:15:39.597Z,957.63
2023-02-22T06:16:42.561Z,957.67
2023-02-22T06:17:39.646Z,957.66
2023-02-22T06:18:39.534Z,957.68
2023-02-22T06:19:39.521Z,957.70
2023-02-22T06:20:39.510Z,957.65
2023-02-22T06:21:39.534Z,957.67
2023-02-22T06:22:39.715Z,957.67
2023-02-22T06:23:39.550Z,957.65
2023-02-22T06:24:39.490Z,957.64
2023-02-22T06:25:39.460Z,957.64
2023-02-22T06:26:39.579Z,957.67
2023-02-22T06:27:39.471Z,957.66
2023-02-22T06:28:39.429Z,957.69
2023-02-22T06:29:39.431Z,957.63
2023-02-22T06:30:39.485Z,957.69
2023-02-22T06:31:42.641Z,957.66
2023-02-22T06:32:39.409Z,957.72
2023-02-22T06:33:39.387Z,957.69
2023-02-22T06:34:39.381Z,957.68
2023-02-22T06:35:39.367Z,957.71
2023-02-22T06:36:39.383Z,957.72
2023-02-22T06:37:39.349Z,957.68
2023-02-22T06:38:39.369Z,957.68
2023-02-22T06:39:39.379Z,957.73
2023-02-22T06:40:39.399Z,957.70
2023-02-22T06:41:39.310Z,957.77
2023-02-22T06:42:39.354Z,957.72
2023-02-22T06:43:39.307Z,957.76
2023-02-22T06:44:39.300Z,957.69
2023-02-22T06:45:39.322Z,957.73
2023-02-22T06:46:42.253Z,957.70
2023-02-22T06:47:39.264Z,957.73
2023-02-22T06:48:39.261Z,957.77
2023-02-22T06:49:39.257Z,957.73
2023-02-22T06:50:39.222Z,957.74
2023-02-22T06:51:39.233Z,957.80
2023-02-22T06:52:39.194Z,957.76
2023-02-22T06:53:39.222Z,957.83
2023-02-22T06:54:39.178Z,957.78
2023-02-22T06:55:39.162Z,957.86
2023-02-22T06:56:39.180Z,957.85
2023-02-22T06:57:39.139Z,957.85
2023-02-22T06:58:39.145Z,957.85
2023-02-22T06:59:39.234Z,957.87
2023-02-22T07:00:39.187Z,957.85
2023-02-22T07:01:42.132Z,957.87
2023-02-22T07:02:39.119Z,957.87
2023-02-22T07:03:39.203Z,957.86
2023-02-22T07:04:39.990Z,957.88
2023-02-22T07:05:39.096Z,957.91
2023-02-22T07:06:39.076Z,957.89
2023-02-22T07:07:39.080Z,957.88
2023-02-22T07:08:39.060Z,957.84
2023-02-22T07:09:39.062Z,957.88
2023-02-22T07:10:39.065Z,957.84
2023-02-22T07:11:39.018Z,957.88
2023-02-22T07:12:39.064Z,957.91
2023-02-22T07:13:39.072Z,957.90
2023-02-22T07:14:39.025Z,957.91
2023-02-22T07:15:38.978Z,957.89
2023-02-22T07:16:42.175Z,957.88
2023-02-22T07:17:38.989Z,957.91
2023-02-22T07:18:38.943Z,957.89
2023-02-22T07:19:39.025Z,957.89
2023-02-22T07:20:38.969Z,957.88
2023-02-22T07:21:38.995Z,957.90
2023-02-22T07:22:38.975Z,957.90
2023-02-22T07:23:38.965Z,957.86
2023-02-22T07:24:38.880Z,957.89
2023-02-22T07:25:38.932Z,957.85
2023-02-22T07:26:38.890Z,957.88
2023-02-22T07:27:38.888Z,957.84
2023-02-22T07:28:38.851Z,957.88
2023-02-22T07:29:38.840Z,957.84
2023-02-22T07:30:38.903Z,957.86
2023-02-22T07:31:41.849Z,957.81
2023-02-22T07:32:38.935Z,957.81
2023-02-22T07:33:38.896Z,957.80
2023-02-22T07:34:38.793Z,957.79
2023-02-22T07:35:38.776Z,957.80
2023-02-22T07:36:38.765Z,957.81
2023-02-22T07:37:38.783Z,957.81
2023-02-22T07:38:38.772Z,957.79
2023-02-22T07:39:38.753Z,957.77
2023-02-22T07:40:38.737Z,957.78
2023-02-22T07:41:38.722Z,957.77
2023-02-22T07:42:38.695Z,957.77
2023-02-22T07:43:38.695Z,957.83
2023-02-22T07:44:38.725Z,957.75
2023-02-22T07:45:38.919Z,957.73
2023-02-22T07:46:41.683Z,957.76
2023-02-22T07:47:38.667Z,957.73
2023-02-22T07:48:38.676Z,957.73
2023-02-22T07:49:38.658Z,957.74
2023-02-22T07:50:38.749Z,957.73
2023-02-22T07:51:38.711Z,957.76
2023-02-22T07:52:38.640Z,957.77
2023-02-22T07:53:38.638Z,957.66
2023-02-22T07:54:38.625Z,957.73
2023-02-22T07:55:38.581Z,957.67
2023-02-22T07:56:38.577Z,957.71
2023-02-22T07:57:38.576Z,957.71
2023-02-22T07:58:38.564Z,957.71
2023-02-22T07:59:38.531Z,957.68
2023-02-22T08:00:38.540Z,957.68
2023-02-22T08:01:41.539Z,957.67
2023-02-22T08:02:38.536Z,957.72
2023-02-22T08:03:38.591Z,957.68
2023-02-22T08:04:38.499Z,957.73
2023-02-22T08:05:38.604Z,957.69
2023-02-22T08:06:38.484Z,957.70
2023-02-22T08:07:38.478Z,957.72
2023-02-22T08:08:38.486Z,957.68
2023-02-22T08:09:38.435Z,957.68
2023-02-22T08:10:38.492Z,957.67
2023-02-22T08:11:38.457Z,957.67
2023-02-22T08:12:38.472Z,957.69
2023-02-22T08:13:38.460Z,957.69
2023-02-22T08:14:38.499Z,957.73
2023-02-22T08:15:38.414Z,957.70
2023-02-22T08:16:41.412Z,957.67
2023-02-22T08:17:38.421Z,957.69
2023-02-22T08:18:38.392Z,957.68
2023-02-22T08:19:38.343Z,957.65
2023-02-22T08:20:38.322Z,957.61
2023-02-22T08:21:38.361Z,957.64
2023-02-22T08:22:38.346Z,957.68
2023-02-22T08:23:38.310Z,957.65
2023-02-22T08:24:38.272Z,957.64
2023-02-22T08:25:38.607Z,957.62
2023-02-22T08:26:38.272Z,957.67
2023-02-22T08:27:38.270Z,957.68
2023-02-22T08:28:38.242Z,957.68
2023-02-22T08:29:38.232Z,957.63
2023-02-22T08:30:40.209Z,957.61
2023-02-22T08:31:42.242Z,957.58
2023-02-22T08:32:38.268Z,957.60
2023-02-22T08:33:38.171Z,957.58
2023-02-22T08:34:38.178Z,957.64
2023-02-22T08:35:38.207Z,957.68
2023-02-22T08:36:38.173Z,957.64
2023-02-22T08:37:38.165Z,957.63
2023-02-22T08:38:38.130Z,957.62
2023-02-22T08:39:38.151Z,957.61
2023-02-22T08:40:38.149Z,957.70
2023-02-22T08:41:38.114Z,957.66
2023-02-22T08:42:38.132Z,957.69
2023-02-22T08:43:38.073Z,957.68
2023-02-22T08:44:38.109Z,957.68
2023-02-22T08:45:38.109Z,957.68
2023-02-22T08:46:41.060Z,957.73
2023-02-22T08:47:38.047Z,957.71
2023-02-22T08:48:38.038Z,957.75
2023-02-22T08:49:38.089Z,957.73
2023-02-22T08:50:38.030Z,957.78
2023-02-22T08:51:38.022Z,957.72
2023-02-22T08:52:38.006Z,957.75
2023-02-22T08:53:37.968Z,957.71
2023-02-22T08:54:37.989Z,957.71
2023-02-22T08:55:38.000Z,957.71
2023-02-22T08:56:37.980Z,957.71
2023-02-22T08:57:38.027Z,957.74
2023-02-22T08:58:37.921Z,957.66
2023-02-22T08:59:37.943Z,957.69
2023-02-22T09:00:37.914Z,957.69
2023-02-22T09:01:40.917Z,957.68
2023-02-22T09:02:37.923Z,957.69
2023-02-22T09:03:37.890Z,957.67
2023-02-22T09:04:37.863Z,957.70
2023-02-22T09:05:38.044Z,957.65
2023-02-22T09:06:37.932Z,957.63
2023-02-22T09:07:37.823Z,957.64
2023-02-22T09:08:37.845Z,957.63
2023-02-22T09:09:37.842Z,957.66
2023-02-22T09:10:37.856Z,957.69
2023-02-22T09:11:37.780Z,957.65
2023-02-22T09:12:37.800Z,957.66
2023-02-22T09:13:37.786Z,957.69
2023-02-22T09:14:37.793Z,957.65
2023-02-22T09:15:37.754Z,957.69
2023-02-22T09:16:40.842Z,957.67
2023-02-22T09:17:37.776Z,957.64
2023-02-22T09:18:44.006Z,957.62
2023-02-22T09:19:37.820Z,957.62
2023-02-22T09:20:37.733Z,957.61
2023-02-22T09:21:37.708Z,957.61
2023-02-22T09:22:37.696Z,957.64
2023-02-22T09:23:37.758Z,957.61
2023-02-22T09:24:37.685Z,957.66
2023-02-22T09:25:37.666Z,957.64
2023-02-22T09:26:37.644Z,957.64
2023-02-22T09:27:37.673Z,957.65
2023-02-22T09:28:37.607Z,957.65
2023-02-22T09:29:37.627Z,957.60
2023-02-22T09:30:37.744Z,957.62
2023-02-22T09:31:40.776Z,957.63
2023-02-22T09:32:37.838Z,957.59
2023-02-22T09:33:37.577Z,957.54
2023-02-22T09:34:37.793Z,957.53
2023-02-22T09:35:37.526Z,957.54
2023-02-22T09:36:37.543Z,957.55
2023-02-22T09:37:37.544Z,957.53
2023-02-22T09:38:37.502Z,957.49
2023-02-22T09:39:37.708Z,957.51
2023-02-22T09:40:37.527Z,957.50
2023-02-22T09:41:37.518Z,957.52
2023-02-22T09:42:37.488Z,957.52
2023-02-22T09:43:37.504Z,957.51
2023-02-22T09:44:37.448Z,957.54
2023-02-22T09:45:37.657Z,957.52
2023-02-22T09:46:40.458Z,957.51
2023-02-22T09:47:37.499Z,957.56
2023-02-22T09:48:37.426Z,957.53
2023-02-22T09:49:37.388Z,957.51
2023-02-22T09:50:37.411Z,957.54
2023-02-22T09:51:37.416Z,957.54
2023-02-22T09:52:37.360Z,957.49
2023-02-22T09:53:37.356Z,957.50
2023-02-22T09:54:37.377Z,957.53
2023-02-22T09:55:37.348Z,957.56
2023-02-22T09:56:37.514Z,957.49
2023-02-22T09:57:37.301Z,957.50
2023-02-22T09:58:37.310Z,957.51
2023-02-22T09:59:37.342Z,957.50
2023-02-22T10:00:37.406Z,957.51
2023-02-22T10:01:40.481Z,957.52
2023-02-22T10:02:37.281Z,957.56
2023-02-22T10:03:37.288Z,957.50
2023-02-22T10:04:37.250Z,957.53
2023-02-22T10:05:37.298Z,957.54
2023-02-22T10:06:37.249Z,957.53
2023-02-22T10:07:37.263Z,957.54
2023-02-22T10:08:37.278Z,957.52
2023-02-22T10:09:37.184Z,957.55
2023-02-22T10:10:37.225Z,957.55
2023-02-22T10:11:37.215Z,957.58
2023-02-22T10:12:37.148Z,957.53
2023-02-22T10:13:37.168Z,957.48
2023-02-22T10:14:37.156Z,957.54
2023-02-22T10:15:37.162Z,957.50
2023-02-22T10:16:40.234Z,957.47
2023-02-22T10:17:37.177Z,957.50
2023-02-22T10:18:37.113Z,957.47
2023-02-22T10:19:37.139Z,957.43
2023-02-22T10:20:37.110Z,957.44
2023-02-22T10:21:37.094Z,957.43
2023-02-22T10:22:37.057Z,957.40
2023-02-22T10:23:37.098Z,957.38
2023-02-22T10:24:37.079Z,957.39
2023-02-22T10:25:37.191Z,957.40
2023-02-22T10:26:37.020Z,957.42
2023-02-22T10:27:37.032Z,957.38
2023-02-22T10:28:37.006Z,957.42
2023-02-22T10:29:36.966Z,957.40
2023-02-22T10:30:37.012Z,957.43
2023-02-22T10:31:40.027Z,957.39
2023-02-22T10:33:36.940Z,957.40
2023-02-22T10:34:36.955Z,957.39
2023-02-22T10:35:36.979Z,957.38
2023-02-22T10:36:36.916Z,957.39
2023-02-22T10:37:36.968Z,957.41
2023-02-22T10:38:36.903Z,957.42
2023-02-22T10:39:36.899Z,957.41
2023-02-22T10:40:36.915Z,957.42
2023-02-22T10:41:36.882Z,957.38
2023-02-22T10:43:36.853Z,957.38
2023-02-22T10:44:36.857Z,957.44
2023-02-22T10:45:36.903Z,957.40
2023-02-22T10:46:39.825Z,957.41
2023-02-22T10:47:36.794Z,957.40
2023-02-22T10:48:36.771Z,957.36
2023-02-22T10:49:36.793Z,957.39
2023-02-22T10:50:36.755Z,957.44
2023-02-22T10:51:36.769Z,957.42
2023-02-22T10:52:36.737Z,957.46
2023-02-22T10:53:36.747Z,957.42
2023-02-22T10:54:36.713Z,957.40
2023-02-22T10:55:36.726Z,957.43
2023-02-22T10:56:36.692Z,957.43
2023-02-22T10:57:36.737Z,957.42
2023-02-22T10:58:36.734Z,957.37
2023-02-22T10:59:36.749Z,957.35
2023-02-22T11:00:36.716Z,957.34
2023-02-22T11:01:39.716Z,957.37
2023-02-22T11:02:36.652Z,957.36
2023-02-22T11:03:36.654Z,957.34
2023-02-22T11:04:36.646Z,957.29
2023-02-22T11:05:36.653Z,957.24
2023-02-22T11:06:36.576Z,957.28
2023-02-22T11:07:36.607Z,957.23
2023-02-22T11:08:36.744Z,957.24
2023-02-22T11:09:36.551Z,957.19
2023-02-22T11:10:36.560Z,957.23
2023-02-22T11:11:36.562Z,957.20
2023-02-22T11:12:36.529Z,957.20
2023-02-22T11:13:36.564Z,957.22
2023-02-22T11:14:36.525Z,957.19
2023-02-22T11:15:36.525Z,957.20
2023-02-22T11:16:39.619Z,957.20
2023-02-22T11:17:36.508Z,957.18
2023-02-22T11:18:36.480Z,957.19
2023-02-22T11:19:36.464Z,957.16
2023-02-22T11:20:36.443Z,957.13
2023-02-22T11:21:36.433Z,957.12
2023-02-22T11:22:36.449Z,957.11
2023-02-22T11:23:36.445Z,957.11
2023-02-22T11:24:47.458Z,957.09
2023-02-22T11:25:36.406Z,957.10
2023-02-22T11:26:36.397Z,957.13
2023-02-22T11:27:36.412Z,957.02
2023-02-22T11:28:36.339Z,957.04
2023-02-22T11:29:36.348Z,956.98
2023-02-22T11:30:36.539Z,957.01
2023-02-22T11:31:39.450Z,957.02
2023-02-22T11:32:36.403Z,956.97
2023-02-22T11:33:36.350Z,957.01
2023-02-22T11:34:36.313Z,956.94
2023-02-22T11:35:36.307Z,956.93
2023-02-22T11:36:36.301Z,956.92
2023-02-22T11:37:36.258Z,956.90
2023-02-22T11:38:36.249Z,956.91
2023-02-22T11:39:36.262Z,956.90
2023-02-22T11:40:36.236Z,956.87
2023-02-22T11:41:36.267Z,956.84
2023-02-22T11:42:36.234Z,956.86
2023-02-22T11:43:36.290Z,956.84
2023-02-22T11:44:36.183Z,956.87
2023-02-22T11:45:37.365Z,956.84
2023-02-22T11:46:40.255Z,956.84
2023-02-22T11:47:36.189Z,956.87
2023-02-22T11:48:36.188Z,956.84
2023-02-22T11:49:36.121Z,956.86
2023-02-22T11:50:36.142Z,956.82
2023-02-22T11:51:36.106Z,956.82
2023-02-22T11:52:36.112Z,956.87
2023-02-22T11:53:36.091Z,956.82
2023-02-22T11:54:36.109Z,956.83
2023-02-22T11:55:42.746Z,956.79
2023-02-22T11:56:38.284Z,956.76
2023-02-22T11:57:36.044Z,956.77
2023-02-22T11:58:36.057Z,956.78
2023-02-22T11:59:36.017Z,956.77
2023-02-22T12:00:36.062Z,956.79
2023-02-22T12:01:39.182Z,956.76
2023-02-22T12:02:36.561Z,956.79
2023-02-22T12:03:37.197Z,956.74
2023-02-22T12:04:36.150Z,956.72
2023-02-22T12:05:35.983Z,956.71
2023-02-22T12:06:35.938Z,956.68
2023-02-22T12:07:35.969Z,956.70
2023-02-22T12:08:35.958Z,956.66
2023-02-22T12:09:35.928Z,956.70
2023-02-22T12:10:35.935Z,956.67
2023-02-22T12:11:35.887Z,956.63
2023-02-22T12:12:35.915Z,956.65
2023-02-22T12:13:35.902Z,956.66
2023-02-22T12:14:35.863Z,956.65
2023-02-22T12:15:35.862Z,956.65
2023-02-22T12:16:38.841Z,956.67
2023-02-22T12:17:35.930Z,956.62
2023-02-22T12:18:35.826Z,956.64
2023-02-22T12:19:35.861Z,956.62
2023-02-22T12:20:35.819Z,956.63
2023-02-22T12:21:35.817Z,956.63
2023-02-22T12:22:35.810Z,956.61
2023-02-22T12:23:35.770Z,956.60
2023-02-22T12:24:35.764Z,956.59
2023-02-22T12:25:35.769Z,956.60
2023-02-22T12:26:35.757Z,956.60
2023-02-22T12:27:35.755Z,956.60
2023-02-22T12:28:35.936Z,956.61
2023-02-22T12:29:35.727Z,956.56
2023-02-22T12:30:35.838Z,956.59